Řízení letového provozu České republiky
Letiste: LKKU Aktualizace: 20.07.2018 14:02:07  UTC
 METAR LKKU 20.07. 14:00 ...
METAR LKKU 201400Z 02003KT 300V050 CAVOK 28/13 Q1012 RMK REG QNH 1010=